Time;durP1;ratioP1;P1;durP2;ratioP2;P2;SDS_P1;SDS_P2;PMS_P1;PMS_P2;Temp;Humidity;BMP_temperature;BMP_pressure;BME280_temperature;BME280_humidity;BME280_pressure;Samples;Min_cycle;Max_cycle;Signal;HPM_P1;HPM_P2
2024/02/16 00:00:54;;;;;;;8.48;4.80;;;12.00;99.90;;;;;;5078930;28;20036;-80
2024/02/16 00:03:20;;;;;;;9.07;5.60;;;12.00;99.90;;;;;;5081286;28;20119;-80
2024/02/16 00:05:46;;;;;;;13.82;4.82;;;11.70;99.90;;;;;;5080664;28;20114;-80
2024/02/16 00:08:13;;;;;;;9.48;5.07;;;11.90;99.90;;;;;;5078951;28;20051;-80
2024/02/16 00:10:38;;;;;;;9.82;4.47;;;11.90;99.90;;;;;;5079464;28;20036;-80
2024/02/16 00:13:04;;;;;;;8.50;4.85;;;11.80;99.90;;;;;;5062191;28;20090;-79
2024/02/16 00:15:30;;;;;;;9.10;4.80;;;11.90;99.90;;;;;;5060952;28;20043;-80
2024/02/16 00:17:55;;;;;;;8.13;4.18;;;11.70;99.90;;;;;;5078244;28;20696;-80
2024/02/16 00:20:22;;;;;;;6.93;4.50;;;11.70;99.90;;;;;;5083236;28;20048;-79
2024/02/16 00:22:48;;;;;;;10.57;5.18;;;11.80;99.90;;;;;;5089117;28;20059;-79
2024/02/16 00:25:15;;;;;;;6.30;4.05;;;11.80;99.90;;;;;;5088678;28;20040;-79
2024/02/16 00:27:41;;;;;;;9.73;4.78;;;11.80;99.90;;;;;;5087562;28;20096;-80
2024/02/16 00:30:07;;;;;;;9.80;4.45;;;11.70;99.90;;;;;;5082176;28;20041;-80
2024/02/16 00:32:33;;;;;;;8.77;4.72;;;11.60;99.90;;;;;;5080762;28;20076;-80
2024/02/16 00:34:59;;;;;;;10.23;4.97;;;11.70;99.90;;;;;;5080743;28;20040;-79
2024/02/16 00:37:24;;;;;;;7.15;4.50;;;11.50;99.90;;;;;;5083231;28;20032;-80
2024/02/16 00:39:50;;;;;;;5.88;4.13;;;11.60;99.90;;;;;;5067214;28;20119;-80
2024/02/16 00:42:16;;;;;;;8.32;4.03;;;11.70;99.90;;;;;;5084677;28;20037;-80
2024/02/16 00:44:42;;;;;;;8.93;4.65;;;11.70;99.90;;;;;;5084593;28;20048;-80
2024/02/16 00:47:10;;;;;;;6.78;4.45;;;11.60;99.90;;;;;;5084876;28;20044;-80
2024/02/16 00:49:35;;;;;;;8.02;4.40;;;11.60;99.90;;;;;;5084607;28;20054;-80
2024/02/16 00:52:02;;;;;;;8.98;4.80;;;11.50;99.90;;;;;;5083214;28;20119;-80
2024/02/16 00:54:27;;;;;;;7.43;3.70;;;11.50;99.90;;;;;;5083156;28;20059;-80
2024/02/16 00:56:54;;;;;;;9.95;3.90;;;11.50;99.90;;;;;;5082485;28;20033;-80
2024/02/16 00:59:21;;;;;;;8.43;3.95;;;11.60;99.90;;;;;;5082404;28;20047;-80
2024/02/16 01:01:46;;;;;;;6.65;4.10;;;11.50;99.90;;;;;;5081757;28;20046;-80
2024/02/16 01:04:12;;;;;;;7.32;3.67;;;11.60;99.90;;;;;;5081664;28;20040;-80
2024/02/16 01:06:38;;;;;;;5.68;3.75;;;11.50;99.90;;;;;;5082913;28;20032;-80
2024/02/16 01:09:03;;;;;;;6.75;4.00;;;11.50;99.90;;;;;;5082607;28;20408;-80
2024/02/16 01:11:29;;;;;;;9.48;3.42;;;11.50;99.90;;;;;;5082413;28;20059;-80
2024/02/16 01:13:55;;;;;;;7.20;4.43;;;11.50;99.90;;;;;;5063713;28;20040;-80
2024/02/16 01:16:20;;;;;;;10.25;4.38;;;11.40;99.90;;;;;;5082475;28;20072;-80
2024/02/16 01:18:46;;;;;;;7.60;3.80;;;11.40;99.90;;;;;;5079644;28;20086;-80
2024/02/16 01:21:12;;;;;;;7.95;4.35;;;11.40;99.90;;;;;;5079589;28;20062;-80
2024/02/16 01:23:37;;;;;;;7.25;3.85;;;11.50;99.90;;;;;;5081662;28;20040;-80
2024/02/16 01:26:03;;;;;;;4.43;3.50;;;11.50;99.90;;;;;;5079522;28;20048;-80
2024/02/16 01:28:29;;;;;;;7.53;3.88;;;11.30;99.90;;;;;;5079112;28;20059;-80
2024/02/16 01:30:56;;;;;;;12.25;3.95;;;11.50;99.90;;;;;;5078963;28;20506;-80
2024/02/16 01:33:22;;;;;;;8.57;4.07;;;11.40;99.90;;;;;;5080953;28;20051;-80
2024/02/16 01:35:48;;;;;;;9.30;3.60;;;11.40;99.90;;;;;;5062843;28;20047;-80
2024/02/16 01:38:13;;;;;;;5.88;3.75;;;11.30;99.90;;;;;;5078503;28;20040;-80
2024/02/16 01:40:40;;;;;;;7.72;3.88;;;11.20;99.90;;;;;;5078823;28;20507;-80
2024/02/16 01:43:05;;;;;;;10.52;3.80;;;11.20;99.90;;;;;;5080202;28;20041;-80
2024/02/16 01:45:31;;;;;;;8.10;3.72;;;11.20;99.90;;;;;;5078796;28;20113;-80
2024/02/16 01:47:57;;;;;;;7.25;3.60;;;11.20;99.90;;;;;;5078306;28;20067;-80
2024/02/16 01:50:23;;;;;;;6.78;3.88;;;11.10;99.90;;;;;;5062303;28;20040;-80
2024/02/16 01:52:49;;;;;;;7.15;3.35;;;11.20;99.90;;;;;;5078526;28;20044;-80
2024/02/16 01:55:16;;;;;;;7.50;3.35;;;11.10;99.90;;;;;;5077805;28;20078;-80
2024/02/16 01:57:46;;;;;;;8.57;3.60;;;11.20;99.90;;;;;;5079208;28;20478;-80
2024/02/16 02:00:14;;;;;;;5.50;2.65;;;11.20;99.90;;;;;;5077744;28;20040;-80
2024/02/16 02:02:40;;;;;;;6.15;3.53;;;11.00;99.90;;;;;;5061840;28;20577;-80
2024/02/16 02:05:06;;;;;;;6.53;3.70;;;11.00;99.90;;;;;;5079003;28;20036;-80
2024/02/16 02:07:32;;;;;;;9.20;3.40;;;11.10;99.90;;;;;;5080535;28;20049;-80
2024/02/16 02:09:58;;;;;;;5.72;3.80;;;11.10;99.90;;;;;;5079909;28;20037;-81
2024/02/16 02:12:24;;;;;;;8.40;3.67;;;11.00;99.90;;;;;;5078280;28;20124;-79
2024/02/16 02:14:50;;;;;;;6.78;3.05;;;11.10;99.90;;;;;;5079672;28;20064;-80
2024/02/16 02:17:17;;;;;;;8.52;3.17;;;11.00;99.90;;;;;;5061483;28;20040;-80
2024/02/16 02:19:43;;;;;;;8.13;3.28;;;10.90;99.90;;;;;;5060959;28;20424;-80
2024/02/16 02:22:18;;;;;;;7.97;2.90;;;11.00;99.90;;;;;;5077942;28;20045;-81
2024/02/16 02:24:47;;;;;;;6.93;3.00;;;11.10;99.90;;;;;;5079341;28;20036;-80
2024/02/16 02:27:13;;;;;;;8.27;3.13;;;11.10;99.90;;;;;;5061557;28;20076;-81
2024/02/16 02:29:40;;;;;;;6.22;3.15;;;11.10;99.90;;;;;;5077812;28;20530;-80
2024/02/16 02:32:06;;;;;;;5.95;2.75;;;11.00;99.90;;;;;;5076940;28;20045;-81
2024/02/16 02:34:32;;;;;;;5.88;3.17;;;11.10;99.90;;;;;;5061308;28;20044;-80
2024/02/16 02:36:58;;;;;;;7.55;3.30;;;10.90;99.90;;;;;;5078553;28;20058;-80
2024/02/16 02:39:24;;;;;;;7.30;3.00;;;11.00;99.90;;;;;;5079363;28;20054;-80
2024/02/16 02:41:49;;;;;;;7.55;3.13;;;10.90;99.90;;;;;;5061193;28;20037;-80
2024/02/16 02:44:15;;;;;;;6.18;2.97;;;10.80;99.90;;;;;;5078054;28;20598;-81
2024/02/16 02:46:41;;;;;;;5.60;2.92;;;10.90;99.90;;;;;;5078105;28;20039;-81
2024/02/16 02:49:06;;;;;;;6.53;3.38;;;11.00;99.90;;;;;;5079617;28;20060;-80
2024/02/16 02:51:32;;;;;;;8.63;3.25;;;11.00;99.90;;;;;;5061315;28;20063;-80
2024/02/16 02:53:57;;;;;;;7.88;3.28;;;11.00;99.90;;;;;;5078157;28;20045;-80
2024/02/16 02:56:23;;;;;;;7.57;3.53;;;10.90;99.90;;;;;;5078060;28;20071;-81
2024/02/16 02:58:49;;;;;;;10.20;3.88;;;10.90;99.90;;;;;;5079635;28;20040;-80
2024/02/16 03:01:15;;;;;;;8.20;3.08;;;10.90;99.90;;;;;;5078664;28;20083;-80
2024/02/16 03:03:42;;;;;;;6.15;2.95;;;10.90;99.90;;;;;;5077823;28;20037;-81
2024/02/16 03:06:08;;;;;;;7.25;3.17;;;10.90;99.90;;;;;;5079738;28;20043;-80
2024/02/16 03:08:35;;;;;;;6.20;3.00;;;10.80;99.90;;;;;;5076532;28;20044;-80
2024/02/16 03:11:01;;;;;;;6.40;3.28;;;10.80;99.90;;;;;;5077340;28;20044;-80
2024/02/16 03:13:27;;;;;;;7.75;2.88;;;10.80;99.90;;;;;;5079076;28;20043;-80
2024/02/16 03:15:53;;;;;;;7.43;3.67;;;10.80;99.90;;;;;;5077747;28;20059;-80
2024/02/16 03:18:19;;;;;;;5.32;3.20;;;10.80;99.90;;;;;;5077677;28;20040;-80
2024/02/16 03:20:47;;;;;;;8.30;4.03;;;10.70;99.90;;;;;;5077003;28;20480;-80
2024/02/16 03:23:13;;;;;;;7.53;3.42;;;10.60;99.90;;;;;;5079102;28;20044;-80
2024/02/16 03:25:39;;;;;;;5.50;3.00;;;10.70;99.90;;;;;;5078442;28;20044;-80
2024/02/16 03:28:05;;;;;;;4.57;3.10;;;10.50;99.90;;;;;;5076055;28;20075;-80
2024/02/16 03:30:32;;;;;;;11.02;3.33;;;10.70;99.90;;;;;;5077391;28;20106;-80
2024/02/16 03:32:58;;;;;;;6.85;3.40;;;10.50;99.90;;;;;;5061147;28;20045;-80
2024/02/16 03:35:23;;;;;;;5.95;3.78;;;10.70;99.90;;;;;;5079836;28;20040;-80
2024/02/16 03:37:49;;;;;;;9.05;4.65;;;10.60;99.90;;;;;;5078709;28;20032;-80
2024/02/16 03:40:14;;;;;;;5.53;3.20;;;10.50;99.90;;;;;;5077101;28;20036;-80
2024/02/16 03:42:40;;;;;;;6.57;3.50;;;10.60;99.90;;;;;;5078968;28;20040;-80
2024/02/16 03:45:07;;;;;;;6.00;3.35;;;10.60;99.90;;;;;;5078785;28;20041;-80
2024/02/16 03:47:33;;;;;;;5.20;3.47;;;10.60;99.90;;;;;;5078658;28;20090;-81
2024/02/16 03:49:58;;;;;;;7.38;3.50;;;10.70;99.90;;;;;;5077877;28;20040;-80
2024/02/16 03:52:24;;;;;;;9.57;3.88;;;10.60;99.90;;;;;;5079409;28;20385;-80
2024/02/16 03:54:51;;;;;;;5.38;3.90;;;10.70;99.90;;;;;;5079790;28;20047;-80
2024/02/16 03:57:17;;;;;;;6.40;3.40;;;10.80;99.90;;;;;;5061473;28;20036;-81
2024/02/16 03:59:43;;;;;;;8.63;3.80;;;10.60;99.90;;;;;;5061068;28;20415;-80
2024/02/16 04:02:09;;;;;;;8.63;3.80;;;10.70;99.90;;;;;;5077924;28;20045;-80
2024/02/16 04:04:36;;;;;;;5.47;3.40;;;10.60;99.90;;;;;;5078356;28;20040;-80
2024/02/16 04:07:02;;;;;;;7.50;4.03;;;10.70;99.90;;;;;;5077945;28;20131;-80
2024/02/16 04:09:27;;;;;;;6.80;3.63;;;10.70;99.90;;;;;;5061431;28;20037;-80
2024/02/16 04:11:53;;;;;;;6.40;3.65;;;10.60;99.90;;;;;;5079821;28;20094;-81
2024/02/16 04:14:19;;;;;;;9.27;3.70;;;10.80;99.90;;;;;;5066148;28;20717;-80
2024/02/16 04:16:44;;;;;;;7.78;4.40;;;10.60;99.90;;;;;;5082821;28;20499;-80
2024/02/16 04:19:10;;;;;;;8.77;4.00;;;10.60;99.90;;;;;;5079368;28;20435;-80
2024/02/16 04:21:36;;;;;;;8.75;4.07;;;10.60;99.90;;;;;;5081880;28;20096;-80
2024/02/16 04:24:03;;;;;;;7.68;3.92;;;10.60;99.90;;;;;;5082660;28;20051;-80
2024/02/16 04:26:29;;;;;;;7.95;4.53;;;10.60;99.90;;;;;;5082732;28;20036;-80
2024/02/16 04:28:54;;;;;;;4.65;3.70;;;10.70;99.90;;;;;;5066060;28;20033;-80
2024/02/16 04:31:20;;;;;;;6.18;3.67;;;10.70;99.90;;;;;;5066550;22;20049;-73
2024/02/16 04:33:45;;;;;;;6.60;3.78;;;10.70;99.90;;;;;;5054888;28;20045;-74
2024/02/16 04:36:11;;;;;;;8.32;4.55;;;10.70;99.90;;;;;;5055113;28;20026;-73
2024/02/16 04:38:37;;;;;;;6.22;3.58;;;10.60;99.90;;;;;;5055093;28;20515;-73
2024/02/16 04:41:05;;;;;;;7.10;3.95;;;10.60;99.90;;;;;;5036746;28;20037;-73
2024/02/16 04:43:30;;;;;;;6.28;3.83;;;10.40;99.90;;;;;;5054804;28;20403;-73
2024/02/16 04:45:56;;;;;;;4.55;3.20;;;10.60;99.90;;;;;;5054802;28;20045;-73
2024/02/16 04:48:22;;;;;;;7.32;3.58;;;10.60;99.90;;;;;;5054666;28;20041;-73
2024/02/16 04:50:47;;;;;;;4.82;3.42;;;10.50;99.90;;;;;;5054909;28;20040;-73
2024/02/16 04:53:13;;;;;;;7.45;3.92;;;10.50;99.90;;;;;;5055119;28;20043;-72
2024/02/16 04:55:38;;;;;;;7.20;3.85;;;10.40;99.90;;;;;;5054877;28;20431;-73
2024/02/16 04:58:09;;;;;;;10.32;3.72;;;10.50;99.90;;;;;;5054725;28;20033;-74
2024/02/16 05:00:36;;;;;;;6.20;4.00;;;10.50;99.90;;;;;;5036661;28;20043;-72
2024/02/16 05:03:02;;;;;;;7.47;4.53;;;10.40;99.90;;;;;;5055021;28;20083;-73
2024/02/16 05:05:28;;;;;;;7.00;4.25;;;10.40;99.90;;;;;;5036611;28;20048;-73
2024/02/16 05:07:54;;;;;;;7.00;4.10;;;10.50;99.90;;;;;;5054668;28;20517;-72
2024/02/16 05:10:19;;;;;;;4.95;3.72;;;10.50;99.90;;;;;;5054354;28;20041;-72
2024/02/16 05:12:45;;;;;;;7.95;3.58;;;10.50;99.90;;;;;;5054486;28;20455;-72
2024/02/16 05:15:14;;;;;;;9.02;4.20;;;10.40;99.90;;;;;;5054317;28;20044;-72
2024/02/16 05:17:40;;;;;;;5.80;3.55;;;10.50;99.90;;;;;;5054447;28;20039;-72
2024/02/16 05:20:14;;;;;;;7.00;4.18;;;10.50;99.90;;;;;;5054110;28;20060;-72
2024/02/16 05:22:42;;;;;;;7.35;3.78;;;10.40;99.90;;;;;;5036225;28;20064;-72
2024/02/16 05:25:10;;;;;;;4.90;3.53;;;10.40;99.90;;;;;;5054023;28;20108;-72
2024/02/16 05:27:36;;;;;;;6.07;3.95;;;10.50;99.90;;;;;;5036294;28;20113;-72
2024/02/16 05:30:02;;;;;;;8.80;4.85;;;10.50;99.90;;;;;;5053993;28;20496;-72
2024/02/16 05:32:27;;;;;;;5.07;3.90;;;10.60;99.90;;;;;;5054144;28;20049;-73
2024/02/16 05:34:53;;;;;;;8.95;4.32;;;10.40;99.90;;;;;;5036006;28;20033;-72
2024/02/16 05:37:20;;;;;;;9.15;4.03;;;10.50;99.90;;;;;;5054061;28;20420;-72
2024/02/16 05:39:56;;;;;;;8.65;4.20;;;10.50;99.90;;;;;;5053638;28;20043;-72
2024/02/16 05:42:23;;;;;;;9.13;4.07;;;10.40;99.90;;;;;;5053792;28;20416;-73
2024/02/16 05:44:49;;;;;;;5.82;4.70;;;10.50;99.90;;;;;;5053997;28;20049;-73
2024/02/16 05:47:15;;;;;;;5.72;3.90;;;10.60;99.90;;;;;;5053899;28;20075;-73
2024/02/16 05:49:41;;;;;;;8.20;4.70;;;10.40;99.90;;;;;;5053565;28;20049;-73
2024/02/16 05:52:20;;;;;;;13.65;5.10;;;10.40;99.90;;;;;;5053488;28;20094;-73
2024/02/16 05:54:47;;;;;;;9.18;3.95;;;10.50;99.90;;;;;;5053548;28;20044;-73
2024/02/16 05:57:13;;;;;;;8.75;3.65;;;10.50;99.90;;;;;;5053771;28;20098;-73
2024/02/16 05:59:39;;;;;;;6.80;3.70;;;10.50;99.90;;;;;;5053501;28;20037;-73
2024/02/16 06:02:06;;;;;;;4.85;3.22;;;10.40;99.90;;;;;;5053479;28;20456;-73
2024/02/16 06:04:32;;;;;;;5.75;4.25;;;10.60;99.90;;;;;;5053471;28;20052;-73
2024/02/16 06:06:58;;;;;;;8.43;4.05;;;10.50;99.90;;;;;;5053324;28;20527;-73
2024/02/16 06:09:24;;;;;;;5.72;3.97;;;10.50;99.90;;;;;;5051062;28;20045;-73
2024/02/16 06:11:50;;;;;;;6.20;4.18;;;10.50;99.90;;;;;;5053181;28;20457;-73
2024/02/16 06:14:16;;;;;;;8.52;4.18;;;10.50;99.90;;;;;;5053315;28;20093;-74
2024/02/16 06:16:42;;;;;;;5.63;3.55;;;10.60;99.90;;;;;;5051998;28;20120;-73
2024/02/16 06:19:08;;;;;;;9.20;3.65;;;10.70;99.90;;;;;;5053322;28;20166;-73
2024/02/16 06:21:35;;;;;;;6.97;3.80;;;10.70;99.90;;;;;;5051599;28;20049;-73
2024/02/16 06:24:01;;;;;;;7.72;4.00;;;10.70;99.90;;;;;;5053033;28;20059;-73
2024/02/16 06:26:26;;;;;;;8.20;4.10;;;10.70;99.90;;;;;;5053301;28;20488;-73
2024/02/16 06:28:52;;;;;;;9.73;4.43;;;10.70;99.90;;;;;;5053020;28;20051;-73
2024/02/16 06:31:17;;;;;;;10.35;3.78;;;10.60;99.90;;;;;;5052596;28;20045;-73
2024/02/16 06:33:43;;;;;;;7.63;3.67;;;10.50;99.90;;;;;;5052833;28;20037;-73
2024/02/16 06:36:09;;;;;;;7.40;4.30;;;10.50;99.90;;;;;;5051823;28;20082;-73
2024/02/16 06:38:37;;;;;;;4.95;3.22;;;10.70;99.90;;;;;;5052708;28;20408;-73
2024/02/16 06:41:03;;;;;;;6.18;3.90;;;10.60;99.90;;;;;;5052530;28;20112;-73
2024/02/16 06:43:29;;;;;;;5.88;3.53;;;10.60;99.90;;;;;;5052770;28;20403;-73
2024/02/16 06:45:56;;;;;;;6.38;3.83;;;10.70;99.90;;;;;;5052642;28;20041;-73
2024/02/16 06:48:22;;;;;;;7.00;3.70;;;10.70;99.90;;;;;;5051374;28;20045;-74
2024/02/16 06:50:48;;;;;;;7.50;3.88;;;10.60;99.90;;;;;;5052285;28;20041;-73
2024/02/16 06:53:14;;;;;;;6.88;3.70;;;10.50;99.90;;;;;;5052170;28;20519;-73
2024/02/16 06:55:40;;;;;;;5.30;3.58;;;10.60;99.90;;;;;;5052720;28;20504;-72
2024/02/16 06:58:05;;;;;;;6.90;3.95;;;10.50;99.90;;;;;;5052438;28;20106;-73
2024/02/16 07:00:31;;;;;;;6.30;3.83;;;10.40;99.90;;;;;;5052143;28;20074;-73
2024/02/16 07:02:57;;;;;;;8.30;3.83;;;10.40;99.90;;;;;;5052341;28;20070;-73
2024/02/16 07:05:22;;;;;;;6.97;3.88;;;10.40;99.90;;;;;;5052218;28;20033;-73
2024/02/16 07:07:49;;;;;;;6.40;3.88;;;10.40;99.90;;;;;;5052056;28;20477;-72
2024/02/16 07:10:18;;;;;;;6.63;4.55;;;10.40;99.90;;;;;;5051879;28;20500;-73
2024/02/16 07:12:45;;;;;;;7.72;4.57;;;10.60;99.90;;;;;;5050786;28;20045;-73
2024/02/16 07:15:12;;;;;;;5.90;3.70;;;10.50;99.90;;;;;;5050962;28;20056;-73
2024/02/16 07:17:38;;;;;;;4.43;3.22;;;10.60;99.90;;;;;;5051903;28;20037;-73
2024/02/16 07:20:04;;;;;;;6.50;3.88;;;10.60;99.90;;;;;;5051753;28;20087;-73
2024/02/16 07:22:33;;;;;;;5.25;3.20;;;10.60;99.90;;;;;;5051843;28;20128;-73
2024/02/16 07:24:59;;;;;;;18.15;5.60;;;10.60;99.90;;;;;;5050876;28;20447;-73
2024/02/16 07:27:26;;;;;;;12.80;4.45;;;10.60;99.90;;;;;;5051800;28;20531;-73
2024/02/16 07:29:52;;;;;;;30.27;5.57;;;10.70;99.90;;;;;;5051389;28;20044;-73
2024/02/16 07:32:17;;;;;;;9.38;3.67;;;10.80;99.90;;;;;;5051731;28;20037;-73
2024/02/16 07:34:47;;;;;;;8.13;3.40;;;10.80;99.90;;;;;;5051653;28;20068;-73
2024/02/16 07:37:13;;;;;;;6.10;3.88;;;10.70;99.90;;;;;;5050690;28;20139;-73
2024/02/16 07:39:40;;;;;;;4.40;3.33;;;10.80;99.90;;;;;;5051796;28;20115;-73
2024/02/16 07:42:09;;;;;;;6.28;3.85;;;10.90;99.90;;;;;;5050292;28;20037;-73
2024/02/16 07:44:35;;;;;;;7.00;3.42;;;10.90;99.90;;;;;;5051725;28;20052;-73
2024/02/16 07:47:01;;;;;;;7.38;3.65;;;11.00;99.90;;;;;;5051278;28;20048;-73
2024/02/16 07:49:27;;;;;;;6.72;3.33;;;11.00;99.90;;;;;;5051367;28;20037;-73
2024/02/16 07:51:52;;;;;;;21.50;5.78;;;10.90;99.90;;;;;;5051450;28;20068;-73
2024/02/16 07:54:18;;;;;;;12.82;3.67;;;11.10;99.90;;;;;;5051081;28;20036;-73
2024/02/16 07:56:44;;;;;;;11.73;4.38;;;11.00;99.90;;;;;;5026883;28;20411;-73
2024/02/16 07:59:10;;;;;;;14.00;4.35;;;11.00;99.90;;;;;;5050525;28;20040;-73
2024/02/16 08:01:36;;;;;;;18.17;4.75;;;11.00;99.90;;;;;;5032075;28;20041;-72
2024/02/16 08:04:01;;;;;;;11.30;4.75;;;11.10;99.90;;;;;;5031543;28;20496;-73
2024/02/16 08:06:27;;;;;;;16.17;4.40;;;11.10;99.90;;;;;;5031538;28;20079;-73
2024/02/16 08:08:54;;;;;;;7.90;3.20;;;11.10;99.90;;;;;;5013715;28;20048;-75
2024/02/16 08:11:20;;;;;;;11.15;3.67;;;11.10;99.90;;;;;;5013213;28;20563;-76
2024/02/16 08:13:46;;;;;;;9.75;3.83;;;11.10;99.90;;;;;;5031464;28;20551;-75
2024/02/16 08:16:17;;;;;;;6.28;4.10;;;11.10;99.90;;;;;;5031400;28;20033;-75
2024/02/16 08:18:45;;;;;;;4.28;2.95;;;11.20;99.90;;;;;;5013530;28;20048;-75
2024/02/16 08:21:11;;;;;;;26.25;5.78;;;11.30;99.90;;;;;;5013488;28;20046;-75
2024/02/16 08:23:38;;;;;;;7.05;3.70;;;11.30;99.90;;;;;;4997187;28;20421;-75
2024/02/16 08:26:04;;;;;;;6.78;3.63;;;11.40;99.90;;;;;;5013842;28;20047;-75
2024/02/16 08:28:29;;;;;;;6.57;3.53;;;11.30;99.90;;;;;;5031137;28;20118;-75
2024/02/16 08:30:55;;;;;;;13.88;3.90;;;11.40;99.90;;;;;;5030852;28;20104;-75
2024/02/16 08:33:21;;;;;;;11.18;4.28;;;11.30;99.90;;;;;;4997088;28;20045;-75
2024/02/16 08:35:47;;;;;;;9.07;4.18;;;11.30;99.90;;;;;;5013368;28;20049;-75
2024/02/16 08:38:12;;;;;;;5.38;3.50;;;11.50;99.90;;;;;;5013240;28;20037;-74
2024/02/16 08:40:38;;;;;;;12.88;5.05;;;11.50;99.90;;;;;;5031134;28;20046;-75
2024/02/16 08:43:05;;;;;;;26.77;6.35;;;11.50;99.90;;;;;;5031175;28;20049;-75
2024/02/16 08:45:30;;;;;;;9.23;4.60;;;11.50;99.90;;;;;;5030945;28;20485;-75
2024/02/16 08:47:57;;;;;;;28.60;7.63;;;11.60;99.90;;;;;;5013562;28;20057;-75
2024/02/16 08:50:24;;;;;;;12.18;4.80;;;11.60;99.90;;;;;;5031018;28;20042;-75
2024/02/16 08:52:50;;;;;;;19.63;5.38;;;11.70;99.90;;;;;;5013588;28;20041;-75
2024/02/16 08:55:16;;;;;;;9.90;4.30;;;11.60;99.90;;;;;;5013319;28;20041;-74
2024/02/16 08:57:41;;;;;;;7.32;4.13;;;11.70;99.90;;;;;;5030995;28;20048;-74
2024/02/16 09:00:09;;;;;;;6.82;3.95;;;11.70;99.90;;;;;;5034098;28;20493;-75
2024/02/16 09:02:34;;;;;;;6.93;3.97;;;11.60;99.90;;;;;;5034838;28;20056;-75
2024/02/16 09:05:00;;;;;;;9.82;3.90;;;11.70;99.90;;;;;;5034710;28;20038;-75
2024/02/16 09:07:26;;;;;;;8.80;4.32;;;11.70;99.90;;;;;;5034699;28;20041;-75
2024/02/16 09:09:52;;;;;;;8.95;4.18;;;11.80;99.90;;;;;;5016644;28;20120;-75
2024/02/16 09:12:17;;;;;;;7.57;4.47;;;11.70;99.90;;;;;;5016702;28;20049;-74
2024/02/16 09:14:43;;;;;;;8.52;4.78;;;11.60;99.90;;;;;;5034336;28;20091;-74
2024/02/16 09:17:08;;;;;;;8.60;4.22;;;11.80;99.90;;;;;;5034280;28;20037;-74
2024/02/16 09:19:34;;;;;;;6.30;3.67;;;11.70;99.90;;;;;;5034382;28;20038;-75
2024/02/16 09:22:02;;;;;;;7.75;4.65;;;11.70;99.90;;;;;;5016426;28;20046;-74
2024/02/16 09:24:29;;;;;;;7.95;4.30;;;11.80;99.90;;;;;;5034243;28;20087;-75
2024/02/16 09:26:56;;;;;;;5.82;4.07;;;11.70;99.90;;;;;;5034167;28;20076;-74
2024/02/16 09:29:21;;;;;;;5.63;3.83;;;11.70;99.90;;;;;;5033795;28;20354;-74
2024/02/16 09:31:50;;;;;;;7.18;4.68;;;11.80;99.90;;;;;;5016607;28;20043;-74
2024/02/16 09:34:16;;;;;;;11.48;5.07;;;11.90;99.90;;;;;;5034288;28;20521;-74
2024/02/16 09:36:43;;;;;;;10.77;4.90;;;11.90;99.90;;;;;;5016303;28;20044;-74
2024/02/16 09:39:09;;;;;;;6.55;4.28;;;11.90;99.90;;;;;;5016132;28;20497;-75
2024/02/16 09:41:38;;;;;;;7.85;4.25;;;12.00;99.90;;;;;;5015802;28;20068;-74
2024/02/16 09:44:04;;;;;;;6.80;4.20;;;12.10;99.90;;;;;;5033743;28;20171;-74
2024/02/16 09:46:32;;;;;;;8.13;4.60;;;12.10;99.90;;;;;;5016361;28;20128;-74
2024/02/16 09:49:01;;;;;;;8.20;4.70;;;12.10;99.90;;;;;;5015952;28;20130;-74
2024/02/16 09:51:28;;;;;;;10.95;4.70;;;12.20;99.90;;;;;;5015754;28;20052;-75
2024/02/16 09:53:56;;;;;;;10.07;5.85;;;12.30;99.90;;;;;;5015866;28;20056;-74
2024/02/16 09:56:24;;;;;;;6.80;4.78;;;12.30;99.90;;;;;;5033596;28;20034;-74
2024/02/16 09:58:51;;;;;;;8.73;4.70;;;12.30;99.90;;;;;;5033627;28;20055;-75
2024/02/16 10:01:21;;;;;;;8.10;4.47;;;12.30;99.90;;;;;;5033433;28;20176;-74
2024/02/16 10:03:49;;;;;;;11.55;5.20;;;12.50;99.90;;;;;;5015998;28;20162;-74
2024/02/16 10:06:17;;;;;;;7.80;4.55;;;12.50;99.90;;;;;;5033374;28;20434;-74
2024/02/16 10:08:54;;;;;;;8.75;5.40;;;12.40;99.90;;;;;;5015637;28;20041;-74
2024/02/16 10:11:27;;;;;;;10.10;4.85;;;12.50;99.90;;;;;;5015573;28;20575;-74
2024/02/16 10:14:03;;;;;;;7.97;5.18;;;12.70;99.90;;;;;;5033506;28;20037;-74
2024/02/16 10:16:30;;;;;;;9.60;5.40;;;12.60;99.90;;;;;;5033384;28;20038;-75
2024/02/16 10:19:06;;;;;;;8.35;5.43;;;12.70;99.90;;;;;;5033015;28;20393;-74
2024/02/16 10:21:32;;;;;;;9.30;5.13;;;12.80;99.90;;;;;;5032784;28;20063;-74
2024/02/16 10:24:02;;;;;;;9.77;4.53;;;12.90;99.90;;;;;;5015545;28;20130;-74
2024/02/16 10:26:28;;;;;;;9.02;5.43;;;12.90;99.90;;;;;;5033272;28;20052;-74
2024/02/16 10:28:58;;;;;;;9.23;5.88;;;12.90;99.90;;;;;;5033067;28;20138;-74
2024/02/16 10:31:29;;;;;;;11.02;5.53;;;13.00;99.90;;;;;;5047350;22;20050;-73
2024/02/16 10:34:01;;;;;;;9.20;5.57;;;13.10;99.90;;;;;;5015068;28;20049;-73
2024/02/16 10:36:28;;;;;;;8.02;5.22;;;13.00;99.90;;;;;;5015299;28;20648;-74
2024/02/16 10:38:55;;;;;;;8.73;5.57;;;13.10;99.90;;;;;;5015071;28;20037;-74
2024/02/16 10:41:31;;;;;;;9.50;6.38;;;13.10;99.90;;;;;;5014236;28;20068;-74
2024/02/16 10:43:57;;;;;;;9.00;5.90;;;13.20;99.90;;;;;;5015207;28;20481;-74
2024/02/16 10:46:26;;;;;;;8.98;5.90;;;13.20;99.90;;;;;;5014843;28;20080;-74
2024/02/16 10:48:52;;;;;;;9.80;6.78;;;13.30;99.90;;;;;;5014797;28;20124;-74
2024/02/16 10:51:23;;;;;;;9.05;5.90;;;13.30;99.90;;;;;;5014873;28;20137;-74
2024/02/16 10:53:51;;;;;;;9.65;6.47;;;13.20;99.90;;;;;;5014871;28;20044;-74
2024/02/16 10:56:33;;;;;;;12.27;6.60;;;13.20;99.90;;;;;;5014909;28;20041;-74
2024/02/16 10:59:03;;;;;;;10.48;6.47;;;13.30;99.90;;;;;;5014695;28;20124;-74
2024/02/16 11:01:33;;;;;;;11.20;6.50;;;13.30;99.90;;;;;;5014669;28;20520;-74
2024/02/16 11:04:03;;;;;;;10.32;6.13;;;13.20;99.90;;;;;;5014893;28;20416;-74
2024/02/16 11:06:29;;;;;;;13.05;7.32;;;13.30;99.90;;;;;;5014482;28;20052;-74
2024/02/16 11:09:07;;;;;;;11.82;7.32;;;13.20;99.90;;;;;;5014818;28;20037;-74
2024/02/16 11:11:35;;;;;;;8.52;6.80;;;13.10;99.90;;;;;;5014269;28;20065;-74
2024/02/16 11:14:02;;;;;;;12.05;7.78;;;13.20;99.90;;;;;;5032411;28;20088;-74
2024/02/16 11:16:28;;;;;;;12.65;7.35;;;13.10;99.90;;;;;;5014492;28;20120;-74
2024/02/16 11:18:54;;;;;;;12.02;8.05;;;13.20;99.90;;;;;;4998293;28;20124;-74
2024/02/16 11:21:19;;;;;;;21.85;8.02;;;13.10;99.90;;;;;;5013961;28;20065;-74
2024/02/16 11:23:45;;;;;;;11.98;8.10;;;13.00;99.90;;;;;;5031951;28;20523;-74
2024/02/16 11:26:12;;;;;;;11.57;7.88;;;13.00;99.90;;;;;;5014466;28;20483;-74
2024/02/16 11:28:42;;;;;;;12.93;9.07;;;12.90;99.90;;;;;;5014373;28;20041;-74
2024/02/16 11:31:08;;;;;;;16.95;10.32;;;13.00;99.90;;;;;;5031662;28;20080;-74
2024/02/16 11:33:34;;;;;;;16.98;11.30;;;12.80;99.90;;;;;;5014115;28;20657;-74
2024/02/16 11:36:04;;;;;;;15.82;10.73;;;13.00;99.90;;;;;;5014100;28;20044;-74
2024/02/16 11:38:33;;;;;;;19.20;11.75;;;12.90;99.90;;;;;;5014269;28;20501;-74
2024/02/16 11:41:01;;;;;;;26.30;14.57;;;12.70;99.90;;;;;;5013822;28;20037;-74
2024/02/16 11:43:27;;;;;;;22.95;12.55;;;12.60;99.90;;;;;;5014072;28;20048;-74
2024/02/16 11:45:53;;;;;;;24.25;14.40;;;12.50;99.90;;;;;;5031793;28;20045;-74
2024/02/16 11:48:23;;;;;;;25.08;14.48;;;12.50;99.90;;;;;;5013930;28;20056;-74
2024/02/16 11:51:09;;;;;;;29.70;14.95;;;12.50;99.90;;;;;;5013656;28;20082;-74
2024/02/16 11:53:35;;;;;;;25.15;14.63;;;12.40;99.90;;;;;;5013547;28;20136;-74
2024/02/16 11:56:00;;;;;;;28.98;15.52;;;12.10;99.90;;;;;;5013672;28;20164;-74
2024/02/16 11:58:27;;;;;;;31.65;15.50;;;12.20;99.90;;;;;;5013808;28;20041;-74
2024/02/16 12:00:53;;;;;;;28.40;14.77;;;12.10;99.90;;;;;;4997506;28;20045;-74
2024/02/16 12:03:23;;;;;;;19.25;12.27;;;12.00;99.90;;;;;;4997525;28;20044;-74
2024/02/16 12:05:56;;;;;;;27.88;12.10;;;11.80;99.90;;;;;;5013761;28;20510;-74
2024/02/16 12:08:22;;;;;;;14.00;9.25;;;11.70;99.90;;;;;;4997307;28;20045;-74
2024/02/16 12:10:51;;;;;;;13.77;8.85;;;11.70;99.90;;;;;;5013444;28;20041;-74
2024/02/16 12:13:18;;;;;;;12.82;9.80;;;11.70;99.90;;;;;;5013618;28;20067;-75
2024/02/16 12:15:49;;;;;;;17.92;9.63;;;11.70;99.90;;;;;;5031307;28;20121;-76
2024/02/16 12:18:22;;;;;;;11.20;8.15;;;11.80;99.90;;;;;;5031031;28;20151;-75
2024/02/16 12:21:05;;;;;;;14.73;8.37;;;11.80;99.90;;;;;;5013545;28;20073;-75
2024/02/16 12:23:31;;;;;;;;;;;11.70;99.90;;;;;;5014297;28;20283;-76
2024/02/16 12:25:57;;;;;;;12.70;7.53;;;11.60;99.90;;;;;;5031361;28;19917;-74
2024/02/16 12:28:26;;;;;;;12.90;7.15;;;11.70;99.90;;;;;;5013487;28;20049;-75
2024/02/16 12:30:51;;;;;;;13.38;7.43;;;11.90;99.90;;;;;;5013274;28;20124;-76
2024/02/16 12:33:17;;;;;;;15.57;8.02;;;11.70;99.90;;;;;;5014260;28;20231;-75
2024/02/16 12:35:43;;;;;;;11.63;7.35;;;11.70;99.90;;;;;;5017371;28;20124;-75
2024/02/16 12:38:09;;;;;;;15.88;7.18;;;11.80;99.90;;;;;;5017332;28;20516;-74
2024/02/16 12:40:35;;;;;;;12.10;7.20;;;11.70;99.90;;;;;;5017010;28;20037;-75